Time;durP1;ratioP1;P1;durP2;ratioP2;P2;SDS_P1;SDS_P2;PMS_P1;PMS_P2;Temp;Humidity;BMP_temperature;BMP_pressure;BME280_temperature;BME280_humidity;BME280_pressure;Samples;Min_cycle;Max_cycle;Signal;HPM_P1;HPM_P2
2023/01/09 00:02:46;;;;;;;;;;;;;;;-25.76;49.78;96946.63;6294622;28;19985;-67
2023/01/09 00:05:47;;;;;;;;;;;;;;;-25.69;50.21;96949.69;6294835;28;19924;-66
2023/01/09 00:08:48;;;;;;;;;;;;;;;-25.57;50.08;96939.78;6295048;28;19925;-66
2023/01/09 00:11:50;;;;;;;;;;;;;;;-25.50;49.47;96939.50;6294867;28;19925;-66
2023/01/09 00:14:51;;;;;;;;;;;;;;;-25.46;49.19;96946.41;6300102;28;20382;-67
2023/01/09 00:17:54;;;;;;;;;;;;;;;-25.44;49.19;96947.38;6300303;28;20006;-66
2023/01/09 00:20:59;;;;;;;;;;;;;;;-25.40;49.29;96958.41;6298939;28;19925;-67
2023/01/09 00:24:00;;;;;;;;;;;;;;;-25.43;49.52;96959.03;6299477;28;20317;-66
2023/01/09 00:27:04;;;;;;;;;;;;;;;-25.47;49.12;96961.16;6299073;28;19931;-67
2023/01/09 00:30:08;;;;;;;;;;;;;;;-25.55;49.61;96978.00;6300136;28;20405;-67
2023/01/09 00:33:13;;;;;;;;;;;;;;;-25.62;49.78;96965.88;6299963;28;19924;-67
2023/01/09 00:36:17;;;;;;;;;;;;;;;-25.73;49.21;96966.69;6282384;28;19924;-67
2023/01/09 00:39:23;;;;;;;;;;;;;;;-25.82;49.94;96975.97;6299769;28;19924;-67
2023/01/09 00:42:25;;;;;;;;;;;;;;;-25.93;49.49;96983.47;6298840;28;19924;-66
2023/01/09 00:45:30;;;;;;;;;;;;;;;-25.97;50.51;96988.94;6298962;28;19924;-67
2023/01/09 00:48:36;;;;;;;;;;;;;;;-25.99;50.56;96985.47;6299341;28;19931;-67
2023/01/09 00:51:39;;;;;;;;;;;;;;;-26.01;50.00;96991.94;6299501;28;20390;-70
2023/01/09 00:54:43;;;;;;;;;;;;;;;-26.06;50.55;97000.66;6299522;28;19930;-66
2023/01/09 00:57:45;;;;;;;;;;;;;;;-26.10;49.75;96993.72;6299511;28;20009;-66
2023/01/09 01:00:50;;;;;;;;;;;;;;;-26.16;50.70;96999.06;6299324;28;19975;-66
2023/01/09 01:03:54;;;;;;;;;;;;;;;-26.15;49.60;97004.88;6299398;28;20317;-66
2023/01/09 01:10:19;;;;;;;;;;;;;;;-26.24;49.73;97019.06;6298545;28;20421;-67
2023/01/09 01:13:22;;;;;;;;;;;;;;;-26.28;51.02;97022.94;6299416;28;19920;-67
2023/01/09 01:16:23;;;;;;;;;;;;;;;-26.28;50.84;97029.50;6298990;28;19925;-67
2023/01/09 01:19:24;;;;;;;;;;;;;;;-26.29;50.21;97040.13;6298076;28;20002;-66
2023/01/09 01:22:25;;;;;;;;;;;;;;;-26.34;50.24;97048.09;6298272;28;19928;-67
2023/01/09 01:25:30;;;;;;;;;;;;;;;-26.40;51.01;97046.75;6298846;28;19925;-66
2023/01/09 01:28:31;;;;;;;;;;;;;;;-26.46;50.37;97049.63;6298800;28;19931;-67
2023/01/09 01:31:35;;;;;;;;;;;;;;;-26.51;50.89;97058.34;6298715;28;20402;-66
2023/01/09 01:34:39;;;;;;;;;;;;;;;-26.54;50.80;97058.09;6298641;28;19925;-66
2023/01/09 01:37:42;;;;;;;;;;;;;;;-26.54;50.46;97058.09;6298312;28;19924;-67
2023/01/09 01:40:51;;;;;;;;;;;;;;;-26.58;51.00;97061.91;6298398;28;20025;-67
2023/01/09 01:44:05;;;;;;;;;;;;;;;-26.61;50.14;97063.28;6298579;28;19924;-66
2023/01/09 01:47:06;;;;;;;;;;;;;;;-26.66;50.51;97062.94;6298470;28;19924;-66
2023/01/09 01:50:16;;;;;;;;;;;;;;;-26.70;50.13;97065.06;6298481;28;19924;-67
2023/01/09 01:53:34;;;;;;;;;;;;;;;-26.71;51.29;97080.66;6298185;28;19929;-66
2023/01/09 01:56:38;;;;;;;;;;;;;;;-26.76;50.98;97077.81;6298119;28;20066;-66
2023/01/09 01:59:41;;;;;;;;;;;;;;;-26.81;50.42;97084.84;6297837;28;19963;-66
2023/01/09 02:02:44;;;;;;;;;;;;;;;-26.80;51.14;97094.03;6296979;28;19932;-67
2023/01/09 02:05:45;;;;;;;;;;;;;;;-26.75;51.17;97088.56;6297450;28;19924;-68
2023/01/09 02:08:46;;;;;;;;;;;;;;;-26.73;51.11;97099.47;6296678;28;19925;-67
2023/01/09 02:11:48;;;;;;;;;;;;;;;-26.71;50.76;97090.56;6297319;28;19931;-67
2023/01/09 02:14:54;;;;;;;;;;;;;;;-26.71;50.79;97105.44;6296922;28;19967;-67
2023/01/09 02:18:11;;;;;;;;;;;;;;;-26.68;50.17;97113.09;6297411;28;19924;-66
2023/01/09 02:21:31;;;;;;;;;;;;;;;-26.66;50.92;97111.59;6297618;28;19924;-66
2023/01/09 02:24:33;;;;;;;;;;;;;;;-26.63;51.33;97114.31;6297159;28;19950;-66
2023/01/09 02:27:54;;;;;;;;;;;;;;;-26.63;50.56;97115.19;6297034;28;19924;-66
2023/01/09 02:31:18;;;;;;;;;;;;;;;-26.65;50.42;97128.19;6296720;28;19920;-66
2023/01/09 02:34:38;;;;;;;;;;;;;;;-26.75;50.61;97125.72;6283289;28;19924;-67
2023/01/09 02:37:44;;;;;;;;;;;;;;;-26.82;51.21;97140.09;6296681;28;19924;-66
2023/01/09 02:40:55;;;;;;;;;;;;;;;-26.89;50.31;97137.84;6279317;28;19986;-66
2023/01/09 02:44:11;;;;;;;;;;;;;;;-26.94;50.44;97151.47;6296914;28;19946;-66
2023/01/09 02:47:15;;;;;;;;;;;;;;;-27.00;50.88;97146.00;6296665;28;20294;-67
2023/01/09 02:50:23;;;;;;;;;;;;;;;-27.03;51.50;97153.19;6296878;28;19924;-66
2023/01/09 02:53:33;;;;;;;;;;;;;;;-27.06;51.35;97167.78;6296537;28;20319;-66
2023/01/09 02:56:42;;;;;;;;;;;;;;;-27.07;51.44;97166.06;6296632;28;19924;-66
2023/01/09 03:00:02;;;;;;;;;;;;;;;-27.08;51.79;97176.72;6296302;28;19999;-67
2023/01/09 03:03:24;;;;;;;;;;;;;;;-27.08;50.93;97176.72;6295591;28;19924;-68
2023/01/09 03:06:33;;;;;;;;;;;;;;;-27.10;51.75;97175.69;6296416;28;20394;-66
2023/01/09 03:09:40;;;;;;;;;;;;;;;-27.09;50.71;97182.38;6296142;28;20404;-67
2023/01/09 03:12:47;;;;;;;;;;;;;;;-27.09;51.46;97197.22;6296176;28;19924;-67
2023/01/09 03:15:53;;;;;;;;;;;;;;;-27.15;51.42;97202.56;6296035;28;19924;-67
2023/01/09 03:18:58;;;;;;;;;;;;;;;-27.20;51.66;97207.88;6295325;28;19925;-66
2023/01/09 03:22:01;;;;;;;;;;;;;;;-27.25;51.83;97220.75;6296165;28;19924;-66
2023/01/09 03:25:02;;;;;;;;;;;;;;;-27.25;51.58;97220.75;6295319;28;19924;-67
2023/01/09 03:28:06;;;;;;;;;;;;;;;-27.26;50.73;97223.94;6261768;28;20073;-66
2023/01/09 03:31:07;;;;;;;;;;;;;;;-27.24;51.50;97232.34;6295839;28;19948;-66
2023/01/09 03:34:08;;;;;;;;;;;;;;;-27.25;51.44;97228.16;6296091;28;19924;-66
2023/01/09 03:37:09;;;;;;;;;;;;;;;-27.23;50.82;97233.22;6294555;28;20444;-67
2023/01/09 03:40:10;;;;;;;;;;;;;;;-27.22;51.37;97234.97;6295712;28;20407;-67
2023/01/09 03:43:14;;;;;;;;;;;;;;;-27.23;51.65;97243.97;6295922;28;19931;-67
2023/01/09 03:46:16;;;;;;;;;;;;;;;-27.25;50.71;97250.44;6295921;28;20420;-67
2023/01/09 03:49:20;;;;;;;;;;;;;;;-27.24;51.54;97247.19;6298943;28;19925;-67
2023/01/09 03:52:23;;;;;;;;;;;;;;;-27.24;51.84;97247.19;6301059;28;19924;-68
2023/01/09 03:55:27;;;;;;;;;;;;;;;-27.25;51.16;97250.44;6308605;28;20420;-67
2023/01/09 03:58:28;;;;;;;;;;;;;;;-27.27;51.59;97251.91;6324435;28;20302;-66
2023/01/09 04:01:29;;;;;;;;;;;;;;;-27.28;51.23;97262.53;6324454;28;19924;-66
2023/01/09 04:04:30;;;;;;;;;;;;;;;-27.32;51.53;97267.94;6325673;28;19931;-67
2023/01/09 04:07:31;;;;;;;;;;;;;;;-27.32;50.81;97277.84;6325341;28;20449;-67
2023/01/09 04:10:32;;;;;;;;;;;;;;;-27.33;51.61;97286.03;6325239;28;20415;-67
2023/01/09 04:13:33;;;;;;;;;;;;;;;-27.33;50.96;97290.97;6325428;28;19931;-67
2023/01/09 04:16:37;;;;;;;;;;;;;;;-27.32;52.00;97297.63;6325281;28;19924;-66
2023/01/09 04:19:40;;;;;;;;;;;;;;;-27.31;51.69;97299.41;6325163;28;20283;-66
2023/01/09 04:22:44;;;;;;;;;;;;;;;-27.30;52.01;97311.03;6325832;28;19924;-68
2023/01/09 04:25:46;;;;;;;;;;;;;;;-27.30;51.75;97311.03;6325254;28;20313;-68
2023/01/09 04:28:47;;;;;;;;;;;;;;;-27.28;52.07;97309.56;6306782;28;20044;-68
2023/01/09 04:31:48;;;;;;;;;;;;;;;-27.24;52.21;97316.50;6324842;28;19931;-68
2023/01/09 04:34:52;;;;;;;;;;;;;;;-27.18;52.22;97310.34;6324671;28;19924;-69
2023/01/09 04:38:00;;;;;;;;;;;;;;;-27.09;52.09;97320.97;6324793;28;19928;-66
2023/01/09 04:41:04;;;;;;;;;;;;;;;-27.01;51.36;97317.53;6324638;28;19924;-67
2023/01/09 04:44:10;;;;;;;;;;;;;;;-26.92;51.95;97322.41;6324790;28;19924;-68
2023/01/09 04:47:12;;;;;;;;;;;;;;;-26.82;52.10;97337.31;6323349;28;19924;-68
2023/01/09 04:50:15;;;;;;;;;;;;;;;-26.74;51.48;97336.34;6324665;28;19973;-67
2023/01/09 04:53:18;;;;;;;;;;;;;;;-26.64;50.90;97347.88;6324315;28;20030;-68
2023/01/09 04:56:24;;;;;;;;;;;;;;;-26.49;51.37;97354.06;6324611;28;20010;-67
2023/01/09 04:59:28;;;;;;;;;;;;;;;-26.34;50.92;97356.97;6324024;28;19924;-67
2023/01/09 05:02:29;;;;;;;;;;;;;;;-26.14;51.25;97358.63;6324442;28;20014;-66
2023/01/09 05:05:32;;;;;;;;;;;;;;;-25.93;50.64;97365.31;6323104;28;19951;-66
2023/01/09 05:08:35;;;;;;;;;;;;;;;-25.68;51.03;97367.28;6324225;28;19924;-67
2023/01/09 05:11:39;;;;;;;;;;;;;;;-25.41;50.78;97384.41;6324035;28;19931;-68
2023/01/09 05:14:42;;;;;;;;;;;;;;;-25.18;50.20;97382.91;6323919;28;19920;-68
2023/01/09 05:17:43;;;;;;;;;;;;;;;-25.03;50.58;97384.06;6323128;28;20092;-66
2023/01/09 05:20:44;;;;;;;;;;;;;;;-24.87;50.34;97397.69;6323704;28;19924;-67
2023/01/09 05:23:47;;;;;;;;;;;;;;;-24.74;49.87;97387.94;6323868;28;20354;-68
2023/01/09 05:26:52;;;;;;;;;;;;;;;-24.62;49.98;97391.41;6323922;28;19919;-70
2023/01/09 05:29:56;;;;;;;;;;;;;;;-24.45;49.84;97396.78;6323833;28;19931;-67
2023/01/09 05:33:02;;;;;;;;;;;;;;;-24.79;50.29;97335.44;6323884;28;19920;-68
2023/01/09 05:36:03;;;;;;;;;;;;;;;-24.19;50.40;97416.19;6323763;28;19924;-66
2023/01/09 05:39:07;;;;;;;;;;;;;;;-23.96;50.32;97417.91;6323597;28;19929;-67
2023/01/09 05:42:08;;;;;;;;;;;;;;;-23.73;49.66;97425.47;6323272;28;19924;-67
2023/01/09 05:45:09;;;;;;;;;;;;;;;-23.47;49.78;97429.88;6323052;28;19924;-68
2023/01/09 05:48:12;;;;;;;;;;;;;;;-23.25;49.50;97433.94;6323243;28;19924;-68
2023/01/09 05:51:13;;;;;;;;;;;;;;;-23.05;49.24;97435.41;6323021;28;19924;-67
2023/01/09 05:54:14;;;;;;;;;;;;;;;-22.91;49.25;97435.59;6315775;28;20026;-67
2023/01/09 05:57:18;;;;;;;;;;;;;;;-22.72;48.92;97444.41;6296978;28;20029;-66
2023/01/09 06:00:21;;;;;;;;;;;;;;;-22.53;48.63;97454.03;6297871;28;19940;-67
2023/01/09 06:03:24;;;;;;;;;;;;;;;-22.32;48.81;97452.22;6296764;28;19952;-67
2023/01/09 06:06:35;;;;;;;;;;;;;;;-22.07;48.60;97458.13;6297488;28;19924;-67
2023/01/09 06:09:38;;;;;;;;;;;;;;;-21.73;48.71;97459.53;6297297;28;19924;-67
2023/01/09 06:12:43;;;;;;;;;;;;;;;-21.34;48.34;97469.72;6295985;28;19925;-67
2023/01/09 06:15:45;;;;;;;;;;;;;;;-20.96;47.64;97471.38;6297164;28;19924;-67
2023/01/09 06:18:58;;;;;;;;;;;;;;;-20.59;46.95;97473.75;6296407;28;20317;-67
2023/01/09 06:22:17;;;;;;;;;;;;;;;-20.21;47.30;97480.28;6293121;28;20015;-68
2023/01/09 06:25:20;;;;;;;;;;;;;;;-19.98;46.57;97485.13;6297412;28;19924;-67
2023/01/09 06:28:21;;;;;;;;;;;;;;;-19.79;46.56;97483.75;6296532;28;20058;-67
2023/01/09 06:31:23;;;;;;;;;;;;;;;-19.68;46.32;97492.78;6295935;28;19925;-67
2023/01/09 06:34:24;;;;;;;;;;;;;;;-19.57;46.81;97506.78;6296223;28;20058;-68
2023/01/09 06:37:28;;;;;;;;;;;;;;;-19.46;47.10;97494.91;6278151;28;20066;-67
2023/01/09 06:40:35;;;;;;;;;;;;;;;-19.31;46.22;97499.97;6296762;28;19924;-68
2023/01/09 06:44:01;;;;;;;;;;;;;;;-19.12;46.24;97507.84;6296082;28;19924;-67
2023/01/09 06:47:04;;;;;;;;;;;;;;;-18.92;46.77;97515.69;6296638;28;19924;-66
2023/01/09 06:50:06;;;;;;;;;;;;;;;-18.76;46.64;97515.81;6295859;28;19971;-67
2023/01/09 06:53:09;;;;;;;;;;;;;;;-18.56;46.63;97514.41;6295755;28;20019;-68
2023/01/09 06:56:13;;;;;;;;;;;;;;;-18.38;44.97;97517.09;6296575;28;19924;-67
2023/01/09 06:59:19;;;;;;;;;;;;;;;-18.19;45.45;97514.84;6296210;28;19924;-67
2023/01/09 07:02:27;;;;;;;;;;;;;;;-17.96;44.70;97517.78;6295863;28;20221;-67
2023/01/09 07:05:28;;;;;;;;;;;;;;;-17.89;43.93;97529.88;6296252;28;19924;-66
2023/01/09 07:08:33;;;;;;;;;;;;;;;-17.81;44.20;97532.81;6295344;28;19928;-68
2023/01/09 07:11:38;;;;;;;;;;;;;;;-17.72;44.70;97529.13;6278675;28;19924;-66
2023/01/09 07:14:44;;;;;;;;;;;;;;;-17.61;44.44;97536.41;6296313;28;19924;-67
2023/01/09 07:17:51;;;;;;;;;;;;;;;-17.32;44.64;97530.41;6296044;28;19928;-68
2023/01/09 07:20:54;;;;;;;;;;;;;;;-17.13;43.63;97530.59;6295827;28;19924;-68
2023/01/09 07:23:57;;;;;;;;;;;;;;;-16.93;43.72;97526.59;6296313;28;20368;-67
2023/01/09 07:27:00;;;;;;;;;;;;;;;-16.18;44.21;97532.88;6294781;28;19927;-67
2023/01/09 07:30:01;;;;;;;;;;;;;;;-14.30;41.66;97532.09;6295977;28;19924;-67
2023/01/09 07:33:05;;;;;;;;;;;;;;;-11.99;37.84;97532.31;6295218;28;20042;-67
2023/01/09 07:36:06;;;;;;;;;;;;;;;-9.81;35.56;97538.66;6294809;28;19920;-68
2023/01/09 07:39:08;;;;;;;;;;;;;;;-7.93;32.80;97539.28;6295005;28;20394;-67
2023/01/09 07:45:36;;;;;;;;;;;;;;;-6.08;32.36;97546.31;6294882;28;19924;-68
2023/01/09 07:48:37;;;;;;;;;;;;;;;-6.07;33.19;97548.00;6295011;28;19924;-68
2023/01/09 07:51:42;;;;;;;;;;;;;;;-6.85;33.32;97552.13;6294818;28;19920;-68
2023/01/09 07:54:43;;;;;;;;;;;;;;;-7.62;32.64;97550.06;6294871;28;19936;-67
2023/01/09 07:57:49;;;;;;;;;;;;;;;-8.33;32.92;97553.00;6294555;28;19931;-68
2023/01/09 08:00:52;;;;;;;;;;;;;;;-8.42;30.71;97553.72;6294446;28;20019;-68
2023/01/09 08:03:56;;;;;;;;;;;;;;;-7.82;33.87;97558.22;6295668;28;20394;-68
2023/01/09 08:06:59;;;;;;;;;;;;;;;-6.38;33.17;97565.56;6294017;28;20054;-67
2023/01/09 08:10:00;;;;;;;;;;;;;;;-5.33;32.89;97566.66;6295498;28;19928;-67
2023/01/09 08:13:03;;;;;;;;;;;;;;;-5.45;31.72;97563.13;6295352;28;20469;-67
2023/01/09 08:16:04;;;;;;;;;;;;;;;-6.30;32.92;97567.38;6294553;28;19920;-68
2023/01/09 08:19:05;;;;;;;;;;;;;;;-7.49;34.35;97569.91;6295298;28;20409;-69
2023/01/09 08:22:06;;;;;;;;;;;;;;;-8.18;35.21;97572.06;6295048;28;19932;-68
2023/01/09 08:25:10;;;;;;;;;;;;;;;-8.52;36.90;97572.19;6294957;28;19924;-67
2023/01/09 08:28:16;;;;;;;;;;;;;;;-8.51;37.70;97573.94;6294773;28;19924;-68
2023/01/09 08:31:19;;;;;;;;;;;;;;;-8.07;36.75;97586.69;6295261;28;19924;-67
2023/01/09 08:34:26;;;;;;;;;;;;;;;-7.63;35.92;97579.00;6296595;28;19932;-67
2023/01/09 08:37:31;;;;;;;;;;;;;;;-7.11;32.56;97585.00;6299371;28;19924;-68
2023/01/09 08:40:35;;;;;;;;;;;;;;;-6.79;34.82;97583.78;6299866;28;20344;-68
2023/01/09 08:47:05;;;;;;;;;;;;;;;-7.75;35.67;97595.84;6299335;28;19925;-67
2023/01/09 08:50:08;;;;;;;;;;;;;;;-8.09;35.70;97593.50;6299381;28;19925;-67
2023/01/09 08:53:10;;;;;;;;;;;;;;;-8.82;37.32;97591.13;6299699;28;19930;-67
2023/01/09 08:56:11;;;;;;;;;;;;;;;-9.48;37.91;97599.78;6319524;28;19924;-67
2023/01/09 08:59:12;;;;;;;;;;;;;;;-10.00;37.06;97599.25;6324480;28;20085;-67
2023/01/09 09:02:15;;;;;;;;;;;;;;;-10.51;39.30;97602.09;6323794;28;19932;-67
2023/01/09 09:05:20;;;;;;;;;;;;;;;-10.47;39.33;97608.16;6324236;28;19931;-67
2023/01/09 09:08:23;;;;;;;;;;;;;;;-10.30;38.20;97608.63;6324132;28;19920;-67
2023/01/09 09:11:24;;;;;;;;;;;;;;;-9.69;37.44;97611.94;6324251;28;19958;-68
2023/01/09 09:17:49;;;;;;;;;;;;;;;-8.92;34.60;97607.03;6324081;28;19936;-68
2023/01/09 09:20:52;;;;;;;;;;;;;;;-8.97;34.23;97606.06;6323323;28;20385;-68
2023/01/09 09:24:02;;;;;;;;;;;;;;;-9.14;33.88;97615.88;6323801;28;19924;-68
2023/01/09 09:27:03;;;;;;;;;;;;;;;-8.61;35.05;97609.44;6323824;28;19986;-68
2023/01/09 09:30:08;;;;;;;;;;;;;;;-8.25;33.92;97618.69;6323652;28;19924;-68
2023/01/09 09:33:09;;;;;;;;;;;;;;;-8.13;32.70;97615.53;6322065;28;19920;-68
2023/01/09 09:36:13;;;;;;;;;;;;;;;-8.65;32.10;97611.91;6323774;28;19928;-68
2023/01/09 09:39:14;;;;;;;;;;;;;;;-9.41;33.68;97621.16;6323363;28;19920;-68
2023/01/09 09:45:40;;;;;;;;;;;;;;;-10.10;33.93;97630.38;6321986;28;19924;-68
2023/01/09 09:48:51;;;;;;;;;;;;;;;-10.46;33.25;97628.53;6323390;28;19924;-68
2023/01/09 09:51:52;;;;;;;;;;;;;;;-11.09;36.25;97641.03;6323095;28;19998;-68
2023/01/09 09:54:53;;;;;;;;;;;;;;;-11.02;36.97;97640.41;6310428;28;20057;-67
2023/01/09 09:58:03;;;;;;;;;;;;;;;-10.57;34.47;97642.63;6297003;28;19924;-68
2023/01/09 10:01:14;;;;;;;;;;;;;;;-10.07;33.03;97649.97;6297570;28;20317;-67
2023/01/09 10:04:17;;;;;;;;;;;;;;;-9.94;33.05;97645.25;6297444;28;19947;-67
2023/01/09 10:07:23;;;;;;;;;;;;;;;-9.99;33.48;97640.84;6279665;28;19920;-67
2023/01/09 10:10:24;;;;;;;;;;;;;;;-9.50;34.54;97643.03;6296489;28;19935;-67
2023/01/09 10:16:49;;;;;;;;;;;;;;;-8.51;31.20;97640.28;6297204;28;19925;-68
2023/01/09 10:19:55;;;;;;;;;;;;;;;-9.22;32.57;97648.84;6297441;28;19924;-67
2023/01/09 10:23:12;;;;;;;;;;;;;;;-10.49;31.78;97648.81;6297197;28;19924;-68
2023/01/09 10:26:28;;;;;;;;;;;;;;;-11.83;36.24;97656.34;6297163;28;19924;-67
2023/01/09 10:29:42;;;;;;;;;;;;;;;-12.77;36.16;97664.75;6296482;28;19931;-67
2023/01/09 10:32:46;;;;;;;;;;;;;;;-13.44;38.09;97662.13;6278397;28;19924;-68
2023/01/09 10:36:06;;;;;;;;;;;;;;;-14.03;38.67;97668.94;6296916;28;19924;-68
2023/01/09 10:39:14;;;;;;;;;;;;;;;-14.60;37.70;97669.00;6296755;28;19924;-68
2023/01/09 10:42:33;;;;;;;;;;;;;;;-15.37;39.37;97669.56;6296645;28;20459;-67
2023/01/09 10:45:46;;;;;;;;;;;;;;;-16.00;40.48;97671.53;6296956;28;19924;-68
2023/01/09 10:48:51;;;;;;;;;;;;;;;-16.53;41.25;97677.19;6295723;28;19947;-67
2023/01/09 10:51:58;;;;;;;;;;;;;;;-17.16;41.14;97693.13;6278583;28;19982;-68
2023/01/09 10:55:19;;;;;;;;;;;;;;;-17.61;41.22;97687.25;6295865;28;19924;-68
2023/01/09 10:58:26;;;;;;;;;;;;;;;-18.03;41.15;97686.53;6282406;28;19931;-68
2023/01/09 11:01:27;;;;;;;;;;;;;;;-18.36;42.52;97692.19;6296376;28;19932;-68
2023/01/09 11:04:29;;;;;;;;;;;;;;;-18.73;42.30;97694.13;6296138;28;19925;-67
2023/01/09 11:07:36;;;;;;;;;;;;;;;-19.03;42.77;97703.16;6296367;28;20035;-67
2023/01/09 11:10:57;;;;;;;;;;;;;;;-19.27;42.97;97710.03;6295638;28;19924;-68
2023/01/09 11:14:07;;;;;;;;;;;;;;;-19.43;42.76;97714.81;6294741;28;19939;-67
2023/01/09 11:17:17;;;;;;;;;;;;;;;-19.58;42.89;97717.22;6277847;28;19925;-67
2023/01/09 11:20:25;;;;;;;;;;;;;;;-19.70;43.09;97719.81;6296022;28;19929;-67
2023/01/09 11:23:29;;;;;;;;;;;;;;;-19.83;43.19;97722.31;6295621;28;19962;-67
2023/01/09 11:26:34;;;;;;;;;;;;;;;-20.00;43.15;97718.69;6294993;28;19931;-66
2023/01/09 11:29:37;;;;;;;;;;;;;;;-20.14;43.06;97719.41;6295885;28;19925;-68
2023/01/09 11:32:38;;;;;;;;;;;;;;;-20.22;44.02;97732.28;6295801;28;19962;-68
2023/01/09 11:35:47;;;;;;;;;;;;;;;-20.35;44.17;97738.84;6294836;28;19947;-68
2023/01/09 11:38:51;;;;;;;;;;;;;;;-20.53;43.46;97743.50;6295498;28;19924;-68
2023/01/09 11:42:01;;;;;;;;;;;;;;;-20.66;44.00;97749.28;6277572;28;19924;-67
2023/01/09 11:45:03;;;;;;;;;;;;;;;-20.79;44.60;97752.59;6295761;28;20519;-69
2023/01/09 11:48:15;;;;;;;;;;;;;;;-20.90;44.30;97751.84;6295307;28;19924;-68
2023/01/09 11:51:19;;;;;;;;;;;;;;;-20.95;44.20;97763.16;6295160;28;20344;-67
2023/01/09 11:54:26;;;;;;;;;;;;;;;-21.02;45.05;97756.00;6294577;28;19931;-67
2023/01/09 11:57:32;;;;;;;;;;;;;;;-21.11;44.64;97760.34;6295554;28;19924;-68
2023/01/09 12:00:54;;;;;;;;;;;;;;;-21.26;45.62;97760.09;6295621;28;19924;-68
2023/01/09 12:04:01;;;;;;;;;;;;;;;-21.33;44.86;97768.81;6294904;28;19924;-68
2023/01/09 12:07:18;;;;;;;;;;;;;;;-21.50;45.66;97774.25;6295371;28;19932;-68
2023/01/09 12:10:40;;;;;;;;;;;;;;;-21.60;45.61;97771.84;6299157;28;19947;-67
2023/01/09 12:13:45;;;;;;;;;;;;;;;-21.72;45.24;97766.81;6281864;28;19932;-67
2023/01/09 12:17:11;;;;;;;;;;;;;;;-21.83;45.29;97773.50;6300373;28;20294;-68
2023/01/09 12:20:21;;;;;;;;;;;;;;;-21.97;45.76;97774.13;6300296;28;19931;-68
2023/01/09 12:23:36;;;;;;;;;;;;;;;-22.11;45.95;97770.59;6300166;28;19924;-67
2023/01/09 12:26:53;;;;;;;;;;;;;;;-22.27;45.92;97768.63;6300160;28;19971;-67
2023/01/09 12:30:33;;;;;;;;;;;;;;;-22.43;45.85;97773.22;6299892;28;19924;-68
2023/01/09 12:34:00;;;;;;;;;;;;;;;-22.62;46.13;97783.41;6246879;28;19921;-68
2023/01/09 12:37:06;;;;;;;;;;;;;;;-22.77;46.49;97779.75;6299804;28;19924;-68
2023/01/09 12:40:19;;;;;;;;;;;;;;;-22.93;46.69;97780.16;6299926;28;19935;-69
2023/01/09 12:43:34;;;;;;;;;;;;;;;-23.05;46.49;97791.72;6298735;28;19974;-68
2023/01/09 12:46:54;;;;;;;;;;;;;;;-23.20;46.78;97793.88;6299075;28;20014;-69
2023/01/09 12:50:16;;;;;;;;;;;;;;;-23.36;46.99;97792.66;6299752;28;20019;-67
2023/01/09 12:53:20;;;;;;;;;;;;;;;-23.43;47.03;97794.53;6299551;28;20310;-67
2023/01/09 12:56:28;;;;;;;;;;;;;;;-23.44;47.51;97800.25;6322995;28;20331;-67
2023/01/09 12:59:33;;;;;;;;;;;;;;;-23.46;47.72;97804.22;6324531;28;20452;-68
2023/01/09 13:02:38;;;;;;;;;;;;;;;-23.47;47.43;97808.34;6323793;28;19962;-67
2023/01/09 13:05:46;;;;;;;;;;;;;;;-23.49;47.49;97808.97;6324578;28;20020;-67
2023/01/09 13:08:51;;;;;;;;;;;;;;;-23.56;47.23;97814.22;6323897;28;19927;-67
2023/01/09 13:11:55;;;;;;;;;;;;;;;-23.59;47.60;97823.19;6322625;28;19932;-67
2023/01/09 13:15:04;;;;;;;;;;;;;;;-23.60;48.08;97823.94;6324286;28;19924;-69
2023/01/09 13:18:26;;;;;;;;;;;;;;;-23.56;47.61;97829.16;6324261;28;20053;-68
2023/01/09 13:21:30;;;;;;;;;;;;;;;-23.59;47.55;97842.22;6322807;28;19938;-68
2023/01/09 13:24:42;;;;;;;;;;;;;;;-23.72;47.46;97835.41;6323870;28;20341;-66
2023/01/09 13:27:45;;;;;;;;;;;;;;;-23.85;47.37;97837.66;6323930;28;19924;-68
2023/01/09 13:30:49;;;;;;;;;;;;;;;-23.96;47.72;97835.91;6323434;28;20325;-68
2023/01/09 13:33:53;;;;;;;;;;;;;;;-24.08;48.07;97846.56;6323175;28;19924;-67
2023/01/09 13:36:57;;;;;;;;;;;;;;;-24.22;47.83;97844.56;6323723;28;20397;-68
2023/01/09 13:40:03;;;;;;;;;;;;;;;-24.31;48.02;97843.78;6323105;28;20019;-68
2023/01/09 13:43:06;;;;;;;;;;;;;;;-24.40;47.85;97848.84;6323057;28;19924;-68
2023/01/09 13:46:07;;;;;;;;;;;;;;;-24.43;47.76;97850.25;6323171;28;19924;-68
2023/01/09 13:49:46;;;;;;;;;;;;;;;-24.45;47.71;97846.75;6323267;28;19928;-69
2023/01/09 13:52:47;;;;;;;;;;;;;;;-24.48;47.64;97858.91;6247253;28;19925;-69
2023/01/09 13:55:57;;;;;;;;;;;;;;;-24.50;48.02;97862.16;6304627;28;19931;-68
2023/01/09 13:59:25;;;;;;;;;;;;;;;-24.52;47.50;97858.66;6297972;28;19966;-69
2023/01/09 14:02:34;;;;;;;;;;;;;;;-24.55;47.79;97865.88;6296918;28;20390;-67
2023/01/09 14:05:35;;;;;;;;;;;;;;;-24.59;48.15;97858.03;6297109;28;19925;-68
2023/01/09 14:08:44;;;;;;;;;;;;;;;-24.66;47.75;97861.59;6297694;28;19924;-69
2023/01/09 14:12:03;;;;;;;;;;;;;;;-24.75;47.81;97865.78;6297739;28;19924;-69
2023/01/09 14:15:04;;;;;;;;;;;;;;;-24.85;47.84;97860.75;6297036;28;20452;-68
2023/01/09 14:18:21;;;;;;;;;;;;;;;-24.94;47.83;97863.31;6296555;28;19925;-69
2023/01/09 14:21:23;;;;;;;;;;;;;;;-25.03;48.20;97868.38;6296716;28;19928;-68
2023/01/09 14:24:29;;;;;;;;;;;;;;;-25.11;48.41;97871.78;6296376;28;19935;-68
2023/01/09 14:27:48;;;;;;;;;;;;;;;-25.17;48.71;97876.25;6296078;28;19928;-67
2023/01/09 14:30:52;;;;;;;;;;;;;;;-25.22;47.71;97882.44;6296934;28;20278;-68
2023/01/09 14:34:13;;;;;;;;;;;;;;;-25.27;48.22;97886.09;6296114;28;19924;-69
2023/01/09 14:37:17;;;;;;;;;;;;;;;-25.28;48.44;97891.81;6295821;28;19924;-68
2023/01/09 14:40:21;;;;;;;;;;;;;;;-25.30;48.40;97894.19;6295964;28;20511;-68
2023/01/09 14:43:45;;;;;;;;;;;;;;;-25.31;48.96;97892.44;6296693;28;20239;-68
2023/01/09 14:46:50;;;;;;;;;;;;;;;-25.23;48.92;97883.19;6296144;28;19924;-68
2023/01/09 14:49:54;;;;;;;;;;;;;;;-25.11;48.83;97890.78;6296448;28;19993;-68
2023/01/09 14:53:15;;;;;;;;;;;;;;;-25.02;48.84;97887.50;6296470;28;20301;-67
2023/01/09 14:56:25;;;;;;;;;;;;;;;-24.92;48.68;97899.13;6314294;28;20487;-68
2023/01/09 14:59:29;;;;;;;;;;;;;;;-24.85;48.39;97895.53;6321544;28;20472;-67
2023/01/09 15:02:34;;;;;;;;;;;;;;;-24.82;48.71;97896.69;6321635;28;19924;-69
2023/01/09 15:05:35;;;;;;;;;;;;;;;-24.86;48.53;97898.78;6321286;28;19924;-69
2023/01/09 15:08:43;;;;;;;;;;;;;;;-24.93;49.21;97891.50;6321614;28;19924;-68
2023/01/09 15:11:44;;;;;;;;;;;;;;;-24.97;48.62;97901.19;6321301;28;19924;-69
2023/01/09 15:14:48;;;;;;;;;;;;;;;-24.93;49.39;97896.47;6320658;28;19931;-68
2023/01/09 15:17:55;;;;;;;;;;;;;;;-25.00;48.69;97905.88;6320363;28;19933;-68
2023/01/09 15:20:59;;;;;;;;;;;;;;;-25.15;48.56;97901.25;6320674;28;19924;-68
2023/01/09 15:24:20;;;;;;;;;;;;;;;-25.32;49.26;97897.28;6321098;28;19932;-67
2023/01/09 15:27:22;;;;;;;;;;;;;;;-25.45;49.80;97907.72;6321208;28;19923;-67
2023/01/09 15:30:33;;;;;;;;;;;;;;;-25.54;49.97;97897.84;6321098;28;19927;-68
2023/01/09 15:33:39;;;;;;;;;;;;;;;-25.64;49.55;97895.25;6319807;28;19924;-68
2023/01/09 15:36:42;;;;;;;;;;;;;;;-25.76;49.23;97914.03;6319952;28;19920;-66
2023/01/09 15:39:43;;;;;;;;;;;;;;;-25.85;49.46;97910.75;6321180;28;19920;-68
2023/01/09 15:42:54;;;;;;;;;;;;;;;-25.94;49.49;97913.28;6320599;28;19924;-67
2023/01/09 15:45:59;;;;;;;;;;;;;;;-26.02;49.10;97915.03;6320837;28;20396;-68
2023/01/09 15:49:04;;;;;;;;;;;;;;;-26.03;50.05;97917.41;6320783;28;20393;-69
2023/01/09 15:52:10;;;;;;;;;;;;;;;-26.10;49.31;97911.00;6320796;28;20321;-67
2023/01/09 15:55:34;;;;;;;;;;;;;;;-26.15;49.23;97915.53;6319087;28;19932;-68
2023/01/09 15:58:46;;;;;;;;;;;;;;;-26.17;49.13;97918.63;6320462;28;19923;-69
2023/01/09 16:03:08;;;;;;;;;;;;;;;-26.04;49.81;97923.94;6320057;28;19954;-68
2023/01/09 16:05:22;;;;;;;;;;;;;;;-25.92;49.89;97921.72;6320309;28;19924;-68
2023/01/09 16:08:30;;;;;;;;;;;;;;;-25.76;49.60;97919.84;6320306;28;19931;-67
2023/01/09 16:11:32;;;;;;;;;;;;;;;-25.55;49.77;97913.47;6320462;28;20069;-68
2023/01/09 16:14:39;;;;;;;;;;;;;;;-25.48;50.31;97923.19;6320267;28;20010;-69
2023/01/09 16:18:03;;;;;;;;;;;;;;;-25.34;50.32;97923.56;6320380;28;19931;-68
2023/01/09 16:21:20;;;;;;;;;;;;;;;-25.31;50.39;97916.38;6319798;28;19931;-69